Time,TemperatureF,DewpointF,PressureIn,WindDirection,WindDirectionDegrees,WindSpeedMPH,WindSpeedGustMPH,Humidity,HourlyPrecipIn,Conditions,Clouds,dailyrainin,SolarRadiationWatts/m^2,SoftwareType,DateUTC
2013-04-12 00:02:00,49.6,45.3,29.79,WSW,247,0.0,0.0,85,0.00,,,0.00,0,WeatherCatV1.12B45,2013-04-12 07:02:00,
2013-04-12 00:07:00,49.6,45.3,29.79,WSW,251,0.0,0.0,85,0.00,,,0.00,0,WeatherCatV1.12B45,2013-04-12 07:07:00,
2013-04-12 00:12:00,49.4,45.1,29.79,SW,234,0.0,0.0,85,0.00,,,0.00,0,WeatherCatV1.12B45,2013-04-12 07:12:00,
2013-04-12 00:17:00,49.2,44.9,29.80,WSW,253,0.0,0.0,85,0.00,,,0.00,0,WeatherCatV1.12B45,2013-04-12 07:17:00,
2013-04-12 00:22:00,49.2,44.9,29.80,WSW,253,0.0,0.0,85,0.00,,,0.00,0,WeatherCatV1.12B45,2013-04-12 07:22:00,
2013-04-12 00:27:00,49.2,45.2,29.80,WSW,247,0.0,0.0,86,0.00,,,0.00,0,WeatherCatV1.12B45,2013-04-12 07:27:00,
2013-04-12 00:32:00,49.2,45.2,29.79,WSW,247,0.0,0.0,86,0.00,,,0.00,0,WeatherCatV1.12B45,2013-04-12 07:32:00,
2013-04-12 00:37:00,48.8,44.8,29.79,WSW,258,0.0,0.0,86,0.00,,,0.00,0,WeatherCatV1.12B45,2013-04-12 07:37:00,
2013-04-12 00:42:00,48.8,44.8,29.79,WSW,257,0.0,0.0,86,0.00,,,0.00,0,WeatherCatV1.12B45,2013-04-12 07:42:00,
2013-04-12 00:47:00,48.8,44.8,29.80,West,267,0.0,0.0,86,0.00,,,0.00,0,WeatherCatV1.12B45,2013-04-12 07:47:00,
2013-04-12 00:52:00,48.8,44.8,29.80,West,270,0.0,0.0,86,0.00,,,0.00,0,WeatherCatV1.12B45,2013-04-12 07:52:00,
2013-04-12 00:57:00,48.8,44.8,29.80,WSW,254,0.0,0.0,86,0.00,,,0.00,0,WeatherCatV1.12B45,2013-04-12 07:57:00,
2013-04-12 01:02:00,48.8,44.8,29.80,West,261,0.0,0.0,86,0.00,,,0.00,0,WeatherCatV1.12B45,2013-04-12 08:02:00,
2013-04-12 01:07:00,47.9,43.9,29.80,West,264,0.0,0.0,86,0.00,,,0.00,0,WeatherCatV1.12B45,2013-04-12 08:07:00,
2013-04-12 01:12:00,47.7,43.7,29.80,West,260,0.0,0.0,86,0.00,,,0.00,0,WeatherCatV1.12B45,2013-04-12 08:12:00,
2013-04-12 01:17:00,47.7,43.7,29.81,WSW,257,0.0,0.0,86,0.00,,,0.00,0,WeatherCatV1.12B45,2013-04-12 08:17:00,
2013-04-12 01:22:00,47.7,43.7,29.81,WSW,251,0.0,0.0,86,0.00,,,0.00,0,WeatherCatV1.12B45,2013-04-12 08:22:00,
2013-04-12 01:27:00,47.3,43.3,29.81,WSW,251,0.0,0.0,86,0.00,,,0.00,0,WeatherCatV1.12B45,2013-04-12 08:27:00,
2013-04-12 01:32:00,47.3,43.3,29.81,SW,234,0.0,0.0,86,0.00,,,0.00,0,WeatherCatV1.12B45,2013-04-12 08:32:00,
2013-04-12 01:37:00,47.3,43.3,29.81,WSW,253,0.0,0.0,86,0.00,,,0.00,0,WeatherCatV1.12B45,2013-04-12 08:37:00,
2013-04-12 01:42:00,46.8,42.8,29.81,WSW,241,0.0,0.0,86,0.00,,,0.00,0,WeatherCatV1.12B45,2013-04-12 08:42:00,
2013-04-12 01:47:00,46.8,42.8,29.80,West,261,0.0,0.0,86,0.00,,,0.00,0,WeatherCatV1.12B45,2013-04-12 08:47:00,
2013-04-12 01:52:00,46.8,42.8,29.80,WSW,248,0.0,0.0,86,0.00,,,0.00,0,WeatherCatV1.12B45,2013-04-12 08:52:00,
2013-04-12 01:57:00,46.2,42.2,29.80,WSW,256,0.0,0.0,86,0.00,,,0.00,0,WeatherCatV1.12B45,2013-04-12 08:57:00,
2013-04-12 02:02:00,46.2,42.8,29.80,WSW,253,0.0,0.0,88,0.00,,,0.00,0,WeatherCatV1.12B45,2013-04-12 09:02:00,
2013-04-12 02:07:00,46.1,42.7,29.80,WSW,247,0.0,0.0,88,0.00,,,0.00,0,WeatherCatV1.12B45,2013-04-12 09:07:00,
2013-04-12 02:12:00,46.0,42.6,29.80,WSW,247,0.0,0.0,88,0.00,,,0.00,0,WeatherCatV1.12B45,2013-04-12 09:12:00,
2013-04-12 02:17:00,45.8,42.5,29.80,WSW,240,0.0,0.0,88,0.00,,,0.00,0,WeatherCatV1.12B45,2013-04-12 09:17:00,
2013-04-12 02:22:00,45.8,42.7,29.80,WSW,248,0.0,0.0,89,0.00,,,0.00,0,WeatherCatV1.12B45,2013-04-12 09:22:00,
2013-04-12 02:27:00,45.8,42.7,29.80,WSW,250,0.0,0.0,89,0.00,,,0.00,0,WeatherCatV1.12B45,2013-04-12 09:27:00,
2013-04-12 02:32:00,45.4,42.3,29.80,WSW,253,0.0,0.0,89,0.00,,,0.00,0,WeatherCatV1.12B45,2013-04-12 09:32:00,
2013-04-12 02:37:00,45.4,42.3,29.80,WSW,256,0.0,0.0,89,0.00,,,0.00,0,WeatherCatV1.12B45,2013-04-12 09:37:00,
2013-04-12 02:42:00,45.4,42.3,29.80,SSE,157,0.0,0.0,89,0.00,,,0.00,0,WeatherCatV1.12B45,2013-04-12 09:42:00,
2013-04-12 02:47:00,45.4,42.3,29.80,SSE,154,0.0,0.0,89,0.00,,,0.00,0,WeatherCatV1.12B45,2013-04-12 09:47:00,
2013-04-12 02:52:00,44.9,41.9,29.80,SSE,151,0.0,0.0,89,0.00,,,0.00,0,WeatherCatV1.12B45,2013-04-12 09:52:00,
2013-04-12 02:57:00,44.6,41.6,29.80,SSE,147,0.0,0.0,89,0.00,,,0.00,0,WeatherCatV1.12B45,2013-04-12 09:57:00,
2013-04-12 03:02:00,44.6,41.6,29.80,SE,144,0.0,0.0,89,0.00,,,0.00,0,WeatherCatV1.12B45,2013-04-12 10:02:00,
2013-04-12 03:07:00,44.5,41.5,29.80,SSE,155,0.0,0.0,89,0.00,,,0.00,0,WeatherCatV1.12B45,2013-04-12 10:07:00,
2013-04-12 03:17:00,44.3,41.3,29.79,SE,143,0.0,0.0,89,0.00,,,0.00,0,WeatherCatV1.12B45,2013-04-12 10:17:00,
2013-04-12 03:22:00,44.3,41.3,29.79,SSE,155,0.0,0.0,89,0.00,,,0.00,0,WeatherCatV1.12B45,2013-04-12 10:22:00,
2013-04-12 03:27:00,44.1,41.1,29.79,SSE,151,0.0,0.0,89,0.00,,,0.00,0,WeatherCatV1.12B45,2013-04-12 10:27:00,
2013-04-12 03:32:00,44.1,41.4,29.79,SSE,151,0.0,0.0,90,0.00,,,0.00,0,WeatherCatV1.12B45,2013-04-12 10:32:00,
2013-04-12 03:37:00,44.1,41.4,29.79,SSE,148,0.0,0.0,90,0.00,,,0.00,0,WeatherCatV1.12B45,2013-04-12 10:37:00,
2013-04-12 03:42:00,43.9,41.2,29.79,SE,141,0.0,0.0,90,0.00,,,0.00,0,WeatherCatV1.12B45,2013-04-12 10:42:00,
2013-04-12 03:47:00,43.9,41.2,29.79,SE,143,0.0,0.0,90,0.00,,,0.00,0,WeatherCatV1.12B45,2013-04-12 10:47:00,
2013-04-12 03:52:00,43.8,41.1,29.79,SE,131,0.0,0.0,90,0.00,,,0.00,0,WeatherCatV1.12B45,2013-04-12 10:52:00,
2013-04-12 03:57:00,43.8,41.1,29.79,SE,144,0.0,0.0,90,0.00,,,0.00,0,WeatherCatV1.12B45,2013-04-12 10:57:00,
2013-04-12 04:02:00,43.5,40.8,29.79,ESE,120,0.0,0.0,90,0.00,,,0.00,0,WeatherCatV1.12B45,2013-04-12 11:02:00,
2013-04-12 04:07:00,43.5,40.8,29.79,SE,141,0.0,0.0,90,0.00,,,0.00,0,WeatherCatV1.12B45,2013-04-12 11:07:00,
2013-04-12 04:12:00,43.3,40.9,29.79,SE,136,0.0,0.0,91,0.00,,,0.00,0,WeatherCatV1.12B45,2013-04-12 11:12:00,
2013-04-12 04:17:00,43.2,40.5,29.79,SE,140,0.0,0.0,90,0.00,,,0.00,0,WeatherCatV1.12B45,2013-04-12 11:17:00,
2013-04-12 04:22:00,43.2,40.5,29.79,SE,143,0.0,0.0,90,0.00,,,0.00,0,WeatherCatV1.12B45,2013-04-12 11:22:00,
2013-04-12 04:27:00,43.1,40.7,29.79,SE,144,0.0,0.0,91,0.00,,,0.00,0,WeatherCatV1.12B45,2013-04-12 11:27:00,
2013-04-12 04:32:00,43.1,40.7,29.79,SSE,150,0.0,0.0,91,0.00,,,0.00,0,WeatherCatV1.12B45,2013-04-12 11:32:00,
2013-04-12 04:37:00,42.9,40.5,29.79,SSE,154,0.0,0.0,91,0.00,,,0.00,0,WeatherCatV1.12B45,2013-04-12 11:37:00,
2013-04-12 04:42:00,42.9,40.5,29.79,SSE,154,0.0,0.0,91,0.00,,,0.00,0,WeatherCatV1.12B45,2013-04-12 11:42:00,
2013-04-12 04:47:00,42.8,40.4,29.79,SSE,150,0.0,0.0,91,0.00,,,0.00,0,WeatherCatV1.12B45,2013-04-12 11:47:00,
2013-04-12 04:52:00,42.9,40.5,29.79,SSE,147,0.0,0.0,91,0.00,,,0.00,0,WeatherCatV1.12B45,2013-04-12 11:52:00,
2013-04-12 04:57:00,42.8,40.4,29.79,SE,141,0.0,0.0,91,0.00,,,0.00,0,WeatherCatV1.12B45,2013-04-12 11:57:00,
2013-04-12 05:02:00,42.8,40.4,29.79,SE,144,0.0,0.0,91,0.00,,,0.00,0,WeatherCatV1.12B45,2013-04-12 12:02:00,
2013-04-12 05:07:00,42.8,40.4,29.79,SSE,168,0.0,0.0,91,0.00,,,0.00,0,WeatherCatV1.12B45,2013-04-12 12:07:00,
2013-04-12 05:12:00,42.8,40.4,29.79,SSE,160,0.0,0.0,91,0.00,,,0.00,0,WeatherCatV1.12B45,2013-04-12 12:12:00,
2013-04-12 05:17:00,42.6,40.2,29.79,SSE,160,0.0,0.0,91,0.00,,,0.00,0,WeatherCatV1.12B45,2013-04-12 12:17:00,
2013-04-12 05:22:00,42.5,40.1,29.79,SE,133,0.0,0.0,91,0.00,,,0.00,0,WeatherCatV1.12B45,2013-04-12 12:22:00,
2013-04-12 05:27:00,42.5,40.3,29.79,SE,141,0.0,0.0,92,0.00,,,0.00,0,WeatherCatV1.12B45,2013-04-12 12:27:00,
2013-04-12 05:32:00,42.5,40.3,29.79,SSE,147,0.0,0.0,92,0.00,,,0.00,0,WeatherCatV1.12B45,2013-04-12 12:32:00,
2013-04-12 05:37:00,42.3,40.1,29.79,SE,144,0.0,0.0,92,0.00,,,0.00,0,WeatherCatV1.12B45,2013-04-12 12:37:00,
2013-04-12 05:42:00,42.3,40.1,29.79,SSE,155,0.0,0.0,92,0.00,,,0.00,0,WeatherCatV1.12B45,2013-04-12 12:42:00,
2013-04-12 05:47:00,42.3,40.1,29.79,SSE,151,0.0,0.0,92,0.00,,,0.00,0,WeatherCatV1.12B45,2013-04-12 12:47:00,
2013-04-12 05:52:00,42.3,40.1,29.79,SE,140,0.0,0.0,92,0.00,,,0.00,0,WeatherCatV1.12B45,2013-04-12 12:52:00,
2013-04-12 05:57:00,42.3,40.1,29.79,SSE,161,0.0,0.0,92,0.00,,,0.00,0,WeatherCatV1.12B45,2013-04-12 12:57:00,
2013-04-12 06:03:00,42.2,40.0,29.80,SSE,157,0.0,0.0,92,0.00,,,0.00,0,WeatherCatV1.12B45,2013-04-12 13:03:00,
2013-04-12 06:12:00,42.2,40.0,29.80,SE,133,0.0,0.0,92,0.00,,,0.00,0,WeatherCatV1.12B45,2013-04-12 13:12:00,
2013-04-12 06:17:00,42.1,39.9,29.80,SSE,158,0.0,0.0,92,0.00,,,0.00,0,WeatherCatV1.12B45,2013-04-12 13:17:00,
2013-04-12 06:22:00,41.9,39.7,29.80,SSE,151,0.0,0.0,92,0.00,,,0.00,0,WeatherCatV1.12B45,2013-04-12 13:22:00,
2013-04-12 06:27:00,41.9,39.7,29.80,SSE,162,0.0,0.0,92,0.00,,,0.00,0,WeatherCatV1.12B45,2013-04-12 13:27:00,
2013-04-12 06:32:00,41.8,39.6,29.80,SE,140,0.0,0.0,92,0.00,,,0.00,0,WeatherCatV1.12B45,2013-04-12 13:32:00,
2013-04-12 06:37:00,41.8,39.6,29.80,SSE,155,0.0,0.0,92,0.00,,,0.00,0,WeatherCatV1.12B45,2013-04-12 13:37:00,
2013-04-12 06:42:00,41.8,39.6,29.80,SSE,147,0.0,0.0,92,0.00,,,0.00,0,WeatherCatV1.12B45,2013-04-12 13:42:00,
2013-04-12 06:47:00,41.8,39.6,29.81,SSE,157,0.0,0.0,92,0.00,,,0.00,5,WeatherCatV1.12B45,2013-04-12 13:47:00,
2013-04-12 06:52:00,41.6,39.5,29.81,SSE,160,0.0,0.0,92,0.00,,,0.00,9,WeatherCatV1.12B45,2013-04-12 13:52:00,
2013-04-12 06:57:00,41.6,39.5,29.81,SE,145,0.0,0.0,92,0.00,,,0.00,12,WeatherCatV1.12B45,2013-04-12 13:57:00,
2013-04-12 07:02:00,41.8,39.6,29.81,SE,140,0.0,0.0,92,0.00,,,0.00,12,WeatherCatV1.12B45,2013-04-12 14:02:00,
2013-04-12 07:07:00,41.9,39.7,29.81,SE,143,0.0,0.0,92,0.00,,,0.00,12,WeatherCatV1.12B45,2013-04-12 14:07:00,
2013-04-12 07:12:00,42.1,39.9,29.81,SSE,151,0.0,0.0,92,0.00,,,0.00,23,WeatherCatV1.12B45,2013-04-12 14:12:00,
2013-04-12 07:17:00,42.2,40.0,29.82,SE,131,0.0,0.0,92,0.00,,,0.00,30,WeatherCatV1.12B45,2013-04-12 14:17:00,
2013-04-12 07:22:00,42.3,40.4,29.82,SE,134,0.0,0.0,93,0.00,,,0.00,35,WeatherCatV1.12B45,2013-04-12 14:22:00,
2013-04-12 07:32:00,42.9,41.0,29.82,SE,138,0.0,0.0,93,0.00,,,0.00,40,WeatherCatV1.12B45,2013-04-12 14:32:00,
2013-04-12 07:37:00,43.3,41.7,29.82,SE,137,0.0,0.0,94,0.00,,,0.00,49,WeatherCatV1.12B45,2013-04-12 14:37:00,
2013-04-12 07:42:00,43.8,42.2,29.82,SE,141,0.0,0.0,94,0.00,,,0.00,49,WeatherCatV1.12B45,2013-04-12 14:42:00,
2013-04-12 07:52:00,45.2,43.6,29.83,NW,306,0.0,0.0,94,0.00,,,0.00,60,WeatherCatV1.12B45,2013-04-12 14:52:00,
2013-04-12 08:02:00,47.7,46.1,29.82,NW,319,0.0,0.0,94,0.00,,,0.00,199,WeatherCatV1.12B45,2013-04-12 15:02:00,
2013-04-12 08:07:00,48.5,46.9,29.82,North,356,0.0,0.0,94,0.00,,,0.00,216,WeatherCatV1.12B45,2013-04-12 15:07:00,
2013-04-12 08:12:00,49.2,47.3,29.82,North,353,0.0,0.0,93,0.00,,,0.00,234,WeatherCatV1.12B45,2013-04-12 15:12:00,
2013-04-12 08:17:00,49.5,47.6,29.83,North,353,0.0,0.0,93,0.00,,,0.00,246,WeatherCatV1.12B45,2013-04-12 15:17:00,
2013-04-12 08:22:00,50.2,48.3,29.83,SSW,213,0.0,0.0,93,0.00,,,0.00,264,WeatherCatV1.12B45,2013-04-12 15:22:00,
2013-04-12 08:27:00,51.1,49.1,29.83,West,270,0.0,0.0,93,0.00,,,0.00,274,WeatherCatV1.12B45,2013-04-12 15:27:00,
2013-04-12 08:32:00,51.9,49.6,29.83,NNW,347,0.0,0.0,92,0.00,,,0.00,303,WeatherCatV1.12B45,2013-04-12 15:32:00,
2013-04-12 08:37:00,52.2,49.9,29.83,NNW,347,0.0,0.0,92,0.00,,,0.00,303,WeatherCatV1.12B45,2013-04-12 15:37:00,
2013-04-12 08:42:00,52.2,49.9,29.83,NW,320,0.0,0.0,92,0.00,,,0.00,303,WeatherCatV1.12B45,2013-04-12 15:42:00,
2013-04-12 08:47:00,52.8,50.5,29.83,NNW,337,0.0,0.0,92,0.00,,,0.00,303,WeatherCatV1.12B45,2013-04-12 15:47:00,
2013-04-12 08:52:00,54.1,50.6,29.83,NNW,342,0.0,0.0,88,0.00,,,0.00,303,WeatherCatV1.12B45,2013-04-12 15:52:00,
2013-04-12 08:57:00,54.8,50.7,29.83,NNW,347,0.0,0.0,86,0.00,,,0.00,410,WeatherCatV1.12B45,2013-04-12 15:57:00,
2013-04-12 09:02:00,55.4,50.3,29.83,North,350,2.0,2.0,83,0.00,,,0.00,419,WeatherCatV1.12B45,2013-04-12 16:02:00,
2013-04-12 09:07:00,55.7,48.9,29.83,North,357,0.0,0.0,78,0.00,,,0.00,449,WeatherCatV1.12B45,2013-04-12 16:07:00,
2013-04-12 09:12:00,56.5,49.4,29.83,North,357,0.0,0.0,77,0.00,,,0.00,465,WeatherCatV1.12B45,2013-04-12 16:12:00,
2013-04-12 09:17:00,57.3,49.8,29.83,North,357,0.0,1.0,76,0.00,,,0.00,465,WeatherCatV1.12B45,2013-04-12 16:17:00,
2013-04-12 09:22:00,58.1,48.7,29.83,North,0,0.0,1.0,71,0.00,,,0.00,501,WeatherCatV1.12B45,2013-04-12 16:22:00,
2013-04-12 09:27:00,58.9,49.1,29.83,West,280,0.0,0.0,70,0.00,,,0.00,524,WeatherCatV1.12B45,2013-04-12 16:27:00,
2013-04-12 09:32:00,59.3,48.7,29.83,NW,325,0.0,0.0,68,0.00,,,0.00,538,WeatherCatV1.12B45,2013-04-12 16:32:00,
2013-04-12 09:37:00,59.9,48.9,29.83,WNW,292,0.0,0.0,67,0.00,,,0.00,558,WeatherCatV1.12B45,2013-04-12 16:37:00,
2013-04-12 09:42:00,60.5,49.5,29.83,NNW,330,0.0,0.0,67,0.00,,,0.00,567,WeatherCatV1.12B45,2013-04-12 16:42:00,
2013-04-12 09:47:00,60.9,49.5,29.83,NW,319,0.0,2.0,66,0.00,,,0.00,588,WeatherCatV1.12B45,2013-04-12 16:47:00,
2013-04-12 09:52:00,61.0,49.1,29.83,NNW,339,0.0,2.0,65,0.00,,,0.00,602,WeatherCatV1.12B45,2013-04-12 16:52:00,
2013-04-12 09:57:00,61.2,48.9,29.83,NNW,333,0.0,2.0,64,0.00,,,0.00,611,WeatherCatV1.12B45,2013-04-12 16:57:00,
2013-04-12 10:02:00,61.2,49.7,29.83,NNW,346,0.0,0.0,66,0.00,,,0.00,623,WeatherCatV1.12B45,2013-04-12 17:02:00,
2013-04-12 10:07:00,61.2,49.7,29.83,NNW,346,0.0,0.0,66,0.00,,,0.00,623,WeatherCatV1.12B45,2013-04-12 17:07:00,
2013-04-12 10:12:00,-999.0,-99.9,29.83,North,-999,-999.0,0.0,-999,0.00,,,0.00,,WeatherCatV1.12B45,2013-04-12 17:12:00,
2013-04-12 10:17:00,-999.0,-99.9,29.83,North,-999,-999.0,0.0,-999,0.00,,,0.00,,WeatherCatV1.12B45,2013-04-12 17:17:00,
2013-04-12 10:22:00,-999.0,-99.9,29.83,North,-999,-999.0,0.0,-999,0.00,,,0.00,,WeatherCatV1.12B45,2013-04-12 17:22:00,
2013-04-12 10:27:00,-999.0,-99.9,29.83,NW,325,1.0,1.0,65,0.00,,,0.00,700,WeatherCatV1.12B45,2013-04-12 17:27:00,
2013-04-12 10:32:00,62.1,49.8,29.83,WNW,287,1.0,1.0,64,0.00,,,0.00,700,WeatherCatV1.12B45,2013-04-12 17:32:00,
2013-04-12 10:37:00,62.3,50.0,29.83,North,354,1.0,2.0,64,0.00,,,0.00,700,WeatherCatV1.12B45,2013-04-12 17:37:00,
2013-04-12 10:42:00,62.4,50.5,29.83,North,357,0.0,1.0,65,0.00,,,0.00,735,WeatherCatV1.12B45,2013-04-12 17:42:00,
2013-04-12 10:47:00,62.6,50.7,29.83,North,357,2.0,3.0,65,0.00,,,0.00,750,WeatherCatV1.12B45,2013-04-12 17:47:00,
2013-04-12 10:52:00,62.6,50.7,29.83,North,350,0.0,3.0,65,0.00,,,0.00,762,WeatherCatV1.12B45,2013-04-12 17:52:00,
2013-04-12 10:57:00,62.6,49.8,29.83,North,356,1.0,5.0,63,0.00,,,0.00,774,WeatherCatV1.12B45,2013-04-12 17:57:00,
2013-04-12 11:03:00,62.6,49.8,29.83,North,356,0.0,2.0,63,0.00,,,0.00,781,WeatherCatV1.12B45,2013-04-12 18:03:00,
2013-04-12 11:12:00,62.4,49.6,29.83,North,356,3.0,5.0,63,0.00,,,0.00,802,WeatherCatV1.12B45,2013-04-12 18:12:00,
2013-04-12 11:17:00,62.0,49.7,29.83,North,353,2.0,5.0,64,0.00,,,0.00,808,WeatherCatV1.12B45,2013-04-12 18:17:00,
2013-04-12 11:20:00,62.1,49.3,29.83,North,353,2.0,6.0,63,0.00,,,0.00,808,WeatherCatV1.12B45,2013-04-12 18:20:00,
2013-04-12 11:22:00,62.0,49.7,29.83,North,353,1.0,6.0,64,0.00,,,0.00,823,WeatherCatV1.12B45,2013-04-12 18:22:00,
2013-04-12 11:25:00,62.0,49.3,29.83,North,353,2.0,8.0,63,0.00,,,0.00,829,WeatherCatV1.12B45,2013-04-12 18:25:00,
2013-04-12 11:30:00,61.8,49.5,29.83,North,351,3.0,5.0,64,0.00,,,0.00,839,WeatherCatV1.12B45,2013-04-12 18:30:00,
2013-04-12 11:35:00,62.1,49.8,29.83,NNW,342,2.0,6.0,64,0.00,,,0.00,850,WeatherCatV1.12B45,2013-04-12 18:35:00,
2013-04-12 11:40:00,62.1,49.8,29.83,NNW,342,2.0,6.0,64,0.00,,,0.00,850,WeatherCatV1.12B45,2013-04-12 18:40:00,
2013-04-12 11:45:00,62.6,50.2,29.83,NNW,328,2.0,2.0,64,0.00,,,0.00,859,WeatherCatV1.12B45,2013-04-12 18:45:00,
2013-04-12 11:50:00,62.7,50.3,29.83,NNW,337,1.0,2.0,64,0.00,,,0.00,859,WeatherCatV1.12B45,2013-04-12 18:50:00,
2013-04-12 11:55:00,63.5,51.1,29.83,NNW,348,1.0,1.0,64,0.00,,,0.00,859,WeatherCatV1.12B45,2013-04-12 18:55:00,
2013-04-12 12:00:00,63.7,50.0,29.83,North,350,2.0,3.0,61,0.00,,,0.00,862,WeatherCatV1.12B45,2013-04-12 19:00:00,
2013-04-12 12:05:00,64.3,50.6,29.82,North,359,0.0,0.0,61,0.00,,,0.00,862,WeatherCatV1.12B45,2013-04-12 19:05:00,
2013-04-12 12:10:00,64.3,50.6,29.82,North,359,0.0,0.0,61,0.00,,,0.00,862,WeatherCatV1.12B45,2013-04-12 19:10:00,
2013-04-12 12:15:00,64.7,50.9,29.82,North,357,0.0,7.0,61,0.00,,,0.00,862,WeatherCatV1.12B45,2013-04-12 19:15:00,
2013-04-12 12:28:00,64.5,50.3,29.82,North,354,2.0,3.0,60,0.00,,,0.00,862,WeatherCatV1.12B45,2013-04-12 19:28:00,
2013-04-12 12:33:00,65.2,51.0,29.82,NNW,346,0.0,0.0,60,0.00,,,0.00,862,WeatherCatV1.12B45,2013-04-12 19:33:00,
2013-04-12 12:38:00,65.2,51.0,29.82,NW,304,2.0,2.0,60,0.00,,,0.00,862,WeatherCatV1.12B45,2013-04-12 19:38:00,
2013-04-12 12:43:00,65.2,51.0,29.82,NW,304,2.0,2.0,60,0.00,,,0.00,862,WeatherCatV1.12B45,2013-04-12 19:43:00,
2013-04-12 12:53:00,-999.0,-99.9,29.82,North,-999,-999.0,0.0,-999,0.00,,,0.00,,WeatherCatV1.12B45,2013-04-12 19:53:00,
2013-04-12 12:58:00,-999.0,-99.9,29.82,North,-999,-999.0,0.0,-999,0.00,,,0.00,,WeatherCatV1.12B45,2013-04-12 19:58:00,
2013-04-12 13:03:00,-999.0,-99.9,29.82,North,-999,-999.0,0.0,-999,0.00,,,0.00,,WeatherCatV1.12B45,2013-04-12 20:03:00,
2013-04-12 13:08:00,-999.0,-99.9,29.82,North,-999,-999.0,0.0,-999,0.00,,,0.00,,WeatherCatV1.12B45,2013-04-12 20:08:00,
2013-04-12 13:13:00,-999.0,-99.9,29.82,North,-999,-999.0,0.0,-999,0.00,,,0.00,,WeatherCatV1.12B45,2013-04-12 20:13:00,
2013-04-12 13:18:00,-999.0,-99.9,29.81,North,-999,-999.0,0.0,-999,0.00,,,0.00,,WeatherCatV1.12B45,2013-04-12 20:18:00,
2013-04-12 13:23:00,-999.0,-99.9,29.81,North,-999,-999.0,0.0,-999,0.00,,,0.00,,WeatherCatV1.12B45,2013-04-12 20:23:00,
2013-04-12 13:28:00,-999.0,-99.9,29.81,North,-999,-999.0,0.0,-999,0.00,,,0.00,,WeatherCatV1.12B45,2013-04-12 20:28:00,
2013-04-12 13:33:00,-999.0,-99.9,29.80,North,-999,-999.0,0.0,-999,0.00,,,0.00,,WeatherCatV1.12B45,2013-04-12 20:33:00,
2013-04-12 13:38:00,-999.0,-99.9,29.80,North,-999,-999.0,0.0,-999,0.00,,,0.00,,WeatherCatV1.12B45,2013-04-12 20:38:00,
2013-04-12 13:43:00,-999.0,-99.9,29.80,North,-999,-999.0,0.0,-999,0.00,,,0.00,,WeatherCatV1.12B45,2013-04-12 20:43:00,
2013-04-12 13:48:00,-999.0,-99.9,29.80,North,-999,-999.0,0.0,-999,0.00,,,0.00,,WeatherCatV1.12B45,2013-04-12 20:48:00,
2013-04-12 13:53:00,-999.0,-99.9,29.80,North,350,2.0,2.0,-999,0.00,,,0.00,,WeatherCatV1.12B45,2013-04-12 20:53:00,
2013-04-12 13:58:00,69.8,49.8,29.80,North,350,0.0,0.0,49,0.00,,,0.00,,WeatherCatV1.12B45,2013-04-12 20:58:00,
2013-04-12 14:03:00,70.4,50.3,29.79,North,354,3.0,3.0,49,0.00,,,0.00,,WeatherCatV1.12B45,2013-04-12 21:03:00,
2013-04-12 14:08:00,71.1,51.0,29.79,NNW,337,2.0,5.0,49,0.00,,,0.00,892,WeatherCatV1.12B45,2013-04-12 21:08:00,
2013-04-12 14:13:00,71.5,51.3,29.79,North,354,5.0,5.0,49,0.00,,,0.00,892,WeatherCatV1.12B45,2013-04-12 21:13:00,
2013-04-12 14:18:00,71.6,51.4,29.78,North,349,6.0,6.0,49,0.00,,,0.00,892,WeatherCatV1.12B45,2013-04-12 21:18:00,
2013-04-12 14:23:00,71.6,51.4,29.78,North,349,6.0,6.0,49,0.00,,,0.00,892,WeatherCatV1.12B45,2013-04-12 21:23:00,
2013-04-12 14:28:00,71.6,51.4,29.78,North,357,1.0,1.0,49,0.00,,,0.00,892,WeatherCatV1.12B45,2013-04-12 21:28:00,
2013-04-12 14:33:00,72.1,51.9,29.79,North,357,1.0,2.0,49,0.00,,,0.00,892,WeatherCatV1.12B45,2013-04-12 21:33:00,
2013-04-12 14:38:00,71.5,51.3,29.79,NNW,343,1.0,1.0,49,0.00,,,0.00,892,WeatherCatV1.12B45,2013-04-12 21:38:00,
2013-04-12 14:43:00,71.1,51.0,29.79,North,0,0.0,0.0,49,0.00,,,0.00,892,WeatherCatV1.12B45,2013-04-12 21:43:00,
2013-04-12 14:48:00,71.1,51.0,29.78,North,357,2.0,2.0,49,0.00,,,0.00,892,WeatherCatV1.12B45,2013-04-12 21:48:00,
2013-04-12 14:53:00,71.1,51.0,29.78,North,357,2.0,2.0,49,0.00,,,0.00,892,WeatherCatV1.12B45,2013-04-12 21:53:00,
2013-04-12 14:58:00,-999.0,-99.9,29.78,North,-999,-999.0,2.0,-999,0.00,,,0.00,,WeatherCatV1.12B45,2013-04-12 21:58:00,
2013-04-12 15:03:00,-999.0,-99.9,29.78,North,-999,-999.0,0.0,-999,0.00,,,0.00,,WeatherCatV1.12B45,2013-04-12 22:03:00,
2013-04-12 15:08:00,-999.0,-99.9,29.78,North,-999,-999.0,0.0,-999,0.00,,,0.00,,WeatherCatV1.12B45,2013-04-12 22:08:00,
2013-04-12 15:13:00,-999.0,-99.9,29.78,North,-999,-999.0,0.0,-999,0.00,,,0.00,,WeatherCatV1.12B45,2013-04-12 22:13:00,
2013-04-12 15:18:00,-999.0,-99.9,29.77,North,-999,-999.0,0.0,-999,0.00,,,0.00,,WeatherCatV1.12B45,2013-04-12 22:18:00,
2013-04-12 15:23:00,-999.0,-99.9,29.77,North,-999,-999.0,0.0,-999,0.00,,,0.00,,WeatherCatV1.12B45,2013-04-12 22:23:00,
2013-04-12 15:28:00,-999.0,-99.9,29.77,North,-999,-999.0,0.0,-999,0.00,,,0.00,,WeatherCatV1.12B45,2013-04-12 22:28:00,
2013-04-12 15:33:00,-999.0,-99.9,29.77,North,-999,-999.0,0.0,-999,0.00,,,0.00,,WeatherCatV1.12B45,2013-04-12 22:33:00,
2013-04-12 15:38:00,-999.0,-99.9,29.77,North,-999,-999.0,0.0,-999,0.00,,,0.00,,WeatherCatV1.12B45,2013-04-12 22:38:00,
2013-04-12 15:43:00,-999.0,-99.9,29.77,North,-999,-999.0,0.0,-999,0.00,,,0.00,,WeatherCatV1.12B45,2013-04-12 22:43:00,
2013-04-12 15:48:00,73.0,48.5,29.76,North,357,1.0,2.0,42,0.00,,,0.00,368,WeatherCatV1.12B45,2013-04-12 22:48:00,
2013-04-12 15:53:00,72.8,48.4,29.76,North,357,4.0,5.0,42,0.00,,,0.00,132,WeatherCatV1.12B45,2013-04-12 22:53:00,
2013-04-12 15:58:00,72.5,46.8,29.76,North,356,0.0,5.0,40,0.00,,,0.00,155,WeatherCatV1.12B45,2013-04-12 22:58:00,
2013-04-12 16:03:00,72.5,46.8,29.76,North,353,1.0,10.0,40,0.00,,,0.00,102,WeatherCatV1.12B45,2013-04-12 23:03:00,
2013-04-12 16:08:00,72.5,47.4,29.76,North,356,0.0,2.0,41,0.00,,,0.00,91,WeatherCatV1.12B45,2013-04-12 23:08:00,
2013-04-12 16:13:00,72.5,46.8,29.76,North,0,3.0,3.0,40,0.00,,,0.00,132,WeatherCatV1.12B45,2013-04-12 23:13:00,
2013-04-12 16:18:00,72.5,48.1,29.76,NNW,337,0.0,2.0,42,0.00,,,0.00,100,WeatherCatV1.12B45,2013-04-12 23:18:00,
2013-04-12 16:23:00,72.8,49.6,29.76,North,354,1.0,2.0,44,0.00,,,0.00,153,WeatherCatV1.12B45,2013-04-12 23:23:00,
2013-04-12 16:28:00,72.7,49.5,29.76,NNW,343,0.0,2.0,44,0.00,,,0.00,153,WeatherCatV1.12B45,2013-04-12 23:28:00,
2013-04-12 16:33:00,72.7,50.1,29.75,NNW,337,0.0,1.0,45,0.00,,,0.00,125,WeatherCatV1.12B45,2013-04-12 23:33:00,
2013-04-12 16:38:00,72.7,50.7,29.75,North,353,2.0,3.0,46,0.00,,,0.00,116,WeatherCatV1.12B45,2013-04-12 23:38:00,
2013-04-12 16:43:00,72.7,50.7,29.75,NNW,347,1.0,1.0,46,0.00,,,0.00,116,WeatherCatV1.12B45,2013-04-12 23:43:00,
2013-04-12 16:48:00,72.3,50.9,29.75,NNW,335,0.0,0.0,47,0.00,,,0.00,116,WeatherCatV1.12B45,2013-04-12 23:48:00,
2013-04-12 16:53:00,72.3,50.9,29.75,NNW,335,0.0,0.0,47,0.00,,,0.00,116,WeatherCatV1.12B45,2013-04-12 23:53:00,
2013-04-12 16:58:00,72.3,49.8,29.75,North,356,0.0,3.0,45,0.00,,,0.00,76,WeatherCatV1.12B45,2013-04-12 23:58:00,
2013-04-12 17:03:00,72.1,49.0,29.75,North,0,0.0,2.0,44,0.00,,,0.00,97,WeatherCatV1.12B45,2013-04-13 00:03:00,
2013-04-12 17:08:00,72.1,47.7,29.75,North,349,0.0,0.0,42,0.00,,,0.00,72,WeatherCatV1.12B45,2013-04-13 00:08:00,
2013-04-12 17:13:00,72.0,47.6,29.75,North,356,0.0,1.0,42,0.00,,,0.00,72,WeatherCatV1.12B45,2013-04-13 00:13:00,
2013-04-12 17:18:00,72.0,47.6,29.75,North,0,1.0,2.0,42,0.00,,,0.00,79,WeatherCatV1.12B45,2013-04-13 00:18:00,
2013-04-12 17:23:00,72.0,48.3,29.75,North,357,1.0,5.0,43,0.00,,,0.00,95,WeatherCatV1.12B45,2013-04-13 00:23:00,
2013-04-12 17:28:00,71.8,46.2,29.75,North,357,2.0,2.0,40,0.00,,,0.00,93,WeatherCatV1.12B45,2013-04-13 00:28:00,
2013-04-12 17:33:00,71.8,46.8,29.75,North,0,2.0,3.0,41,0.00,,,0.00,167,WeatherCatV1.12B45,2013-04-13 00:33:00,
2013-04-12 17:38:00,71.6,47.3,29.75,North,357,0.0,1.0,42,0.00,,,0.00,134,WeatherCatV1.12B45,2013-04-13 00:38:00,
2013-04-12 17:43:00,71.6,47.3,29.75,North,357,0.0,1.0,42,0.00,,,0.00,86,WeatherCatV1.12B45,2013-04-13 00:43:00,
2013-04-12 17:48:00,71.6,48.5,29.75,NNW,336,0.0,3.0,44,0.00,,,0.00,130,WeatherCatV1.12B45,2013-04-13 00:48:00,
2013-04-12 17:53:00,71.6,47.3,29.75,NW,311,0.0,0.0,42,0.00,,,0.00,76,WeatherCatV1.12B45,2013-04-13 00:53:00,
2013-04-12 17:58:00,71.6,47.3,29.75,North,353,1.0,1.0,42,0.00,,,0.00,107,WeatherCatV1.12B45,2013-04-13 00:58:00,
2013-04-12 18:03:00,71.5,49.0,29.75,North,353,1.0,1.0,45,0.00,,,0.00,90,WeatherCatV1.12B45,2013-04-13 01:03:00,
2013-04-12 18:08:00,70.9,49.1,29.75,NW,313,0.0,1.0,46,0.00,,,0.00,93,WeatherCatV1.12B45,2013-04-13 01:08:00,
2013-04-12 18:13:00,70.6,48.8,29.75,NW,318,0.0,1.0,46,0.00,,,0.00,86,WeatherCatV1.12B45,2013-04-13 01:13:00,
2013-04-12 18:18:00,70.4,49.2,29.75,WNW,302,0.0,0.0,47,0.00,,,0.00,146,WeatherCatV1.12B45,2013-04-13 01:18:00,
2013-04-12 18:23:00,69.6,48.5,29.75,NW,326,0.0,0.0,47,0.00,,,0.00,134,WeatherCatV1.12B45,2013-04-13 01:23:00,
2013-04-12 18:28:00,69.1,48.6,29.75,North,353,0.0,1.0,48,0.00,,,0.00,111,WeatherCatV1.12B45,2013-04-13 01:28:00,
2013-04-12 18:33:00,68.8,48.3,29.75,NNW,344,0.0,1.0,48,0.00,,,0.00,111,WeatherCatV1.12B45,2013-04-13 01:33:00,
2013-04-12 18:38:00,68.1,48.2,29.75,NNW,346,0.0,1.0,49,0.00,,,0.00,39,WeatherCatV1.12B45,2013-04-13 01:38:00,
2013-04-12 18:43:00,67.4,47.6,29.75,WNW,302,0.0,1.0,49,0.00,,,0.00,39,WeatherCatV1.12B45,2013-04-13 01:43:00,
2013-04-12 18:48:00,66.8,48.6,29.75,WNW,299,0.0,0.0,52,0.00,,,0.00,35,WeatherCatV1.12B45,2013-04-13 01:48:00,
2013-04-12 18:53:00,66.3,48.6,29.75,NNW,340,0.0,0.0,53,0.00,,,0.00,46,WeatherCatV1.12B45,2013-04-13 01:53:00,
2013-04-12 18:58:00,65.6,48.5,29.75,North,354,0.0,2.0,54,0.00,,,0.00,55,WeatherCatV1.12B45,2013-04-13 01:58:00,
2013-04-12 19:03:00,65.2,48.6,29.75,North,349,0.0,0.0,55,0.00,,,0.00,53,WeatherCatV1.12B45,2013-04-13 02:03:00,
2013-04-12 19:08:00,64.3,48.3,29.75,NNW,336,0.0,0.0,56,0.00,,,0.00,26,WeatherCatV1.12B45,2013-04-13 02:08:00,
2013-04-12 19:13:00,63.7,48.2,29.75,NNW,332,0.0,0.0,57,0.00,,,0.00,23,WeatherCatV1.12B45,2013-04-13 02:13:00,
2013-04-12 19:18:00,62.9,48.3,29.75,NW,304,0.0,0.0,59,0.00,,,0.00,16,WeatherCatV1.12B45,2013-04-13 02:18:00,
2013-04-12 19:23:00,62.3,47.8,29.75,WNW,287,0.0,1.0,59,0.00,,,0.00,14,WeatherCatV1.12B45,2013-04-13 02:23:00,
2013-04-12 19:28:00,61.6,47.6,29.75,WSW,248,0.0,0.0,60,0.00,,,0.00,11,WeatherCatV1.12B45,2013-04-13 02:28:00,
2013-04-12 19:33:00,61.0,47.9,29.75,WNW,294,0.0,0.0,62,0.00,,,0.00,9,WeatherCatV1.12B45,2013-04-13 02:33:00,
2013-04-12 19:38:00,60.5,47.8,29.75,WNW,292,0.0,0.0,63,0.00,,,0.00,5,WeatherCatV1.12B45,2013-04-13 02:38:00,
2013-04-12 19:43:00,59.9,47.7,29.75,NW,312,0.0,0.0,64,0.00,,,0.00,0,WeatherCatV1.12B45,2013-04-13 02:43:00,
2013-04-12 19:48:00,59.5,47.3,29.76,NW,311,0.0,0.0,64,0.00,,,0.00,0,WeatherCatV1.12B45,2013-04-13 02:48:00,
2013-04-12 19:53:00,58.9,47.6,29.76,NW,313,0.0,0.0,66,0.00,,,0.00,0,WeatherCatV1.12B45,2013-04-13 02:53:00,
2013-04-12 19:58:00,58.6,47.3,29.76,NW,316,0.0,0.0,66,0.00,,,0.00,0,WeatherCatV1.12B45,2013-04-13 02:58:00,
2013-04-12 20:03:00,57.8,46.9,29.76,NW,308,0.0,0.0,67,0.00,,,0.00,0,WeatherCatV1.12B45,2013-04-13 03:03:00,
2013-04-12 20:08:00,57.5,46.6,29.76,NNW,330,0.0,0.0,67,0.00,,,0.00,0,WeatherCatV1.12B45,2013-04-13 03:08:00,
2013-04-12 20:13:00,57.2,46.7,29.76,NNW,343,0.0,0.0,68,0.00,,,0.00,0,WeatherCatV1.12B45,2013-04-13 03:13:00,
2013-04-12 20:18:00,57.0,46.5,29.76,NNW,333,0.0,0.0,68,0.00,,,0.00,0,WeatherCatV1.12B45,2013-04-13 03:18:00,
2013-04-12 20:23:00,56.6,46.5,29.76,NW,323,0.0,0.0,69,0.00,,,0.00,0,WeatherCatV1.12B45,2013-04-13 03:23:00,
2013-04-12 20:28:00,56.5,46.8,29.76,WNW,302,0.0,0.0,70,0.00,,,0.00,0,WeatherCatV1.12B45,2013-04-13 03:28:00,
2013-04-12 20:33:00,56.0,46.4,29.77,NNW,346,0.0,0.0,70,0.00,,,0.00,0,WeatherCatV1.12B45,2013-04-13 03:33:00,
2013-04-12 20:38:00,55.7,46.8,29.77,NNW,347,0.0,0.0,72,0.00,,,0.00,0,WeatherCatV1.12B45,2013-04-13 03:38:00,
2013-04-12 20:43:00,55.4,46.5,29.77,NNW,344,0.0,0.0,72,0.00,,,0.00,0,WeatherCatV1.12B45,2013-04-13 03:43:00,
2013-04-12 20:48:00,55.3,47.2,29.77,NNW,339,0.0,0.0,74,0.00,,,0.00,0,WeatherCatV1.12B45,2013-04-13 03:48:00,
2013-04-12 20:58:00,54.8,47.0,29.77,NNW,333,0.0,0.0,75,0.00,,,0.00,0,WeatherCatV1.12B45,2013-04-13 03:58:00,
2013-04-12 21:03:00,54.5,46.4,29.78,NNW,344,0.0,0.0,74,0.00,,,0.00,0,WeatherCatV1.12B45,2013-04-13 04:03:00,
2013-04-12 21:08:00,54.5,46.7,29.78,NNW,336,0.0,0.0,75,0.00,,,0.00,0,WeatherCatV1.12B45,2013-04-13 04:08:00,
2013-04-12 21:13:00,54.1,46.4,29.78,NW,309,0.0,0.0,75,0.00,,,0.00,0,WeatherCatV1.12B45,2013-04-13 04:13:00,
2013-04-12 21:18:00,53.8,46.4,29.79,NW,315,0.0,0.0,76,0.00,,,0.00,0,WeatherCatV1.12B45,2013-04-13 04:18:00,
2013-04-12 21:23:00,53.8,46.4,29.79,NW,315,0.0,0.0,76,0.00,,,0.00,0,WeatherCatV1.12B45,2013-04-13 04:23:00,
2013-04-12 21:28:00,53.5,46.5,29.79,NW,308,0.0,0.0,77,0.00,,,0.00,0,WeatherCatV1.12B45,2013-04-13 04:28:00,
2013-04-12 21:33:00,53.3,46.6,29.79,WNW,299,0.0,0.0,78,0.00,,,0.00,0,WeatherCatV1.12B45,2013-04-13 04:33:00,
2013-04-12 21:38:00,53.2,46.5,29.79,WNW,282,0.0,0.0,78,0.00,,,0.00,0,WeatherCatV1.12B45,2013-04-13 04:38:00,
2013-04-12 21:43:00,53.1,46.4,29.79,WNW,288,0.0,0.0,78,0.00,,,0.00,0,WeatherCatV1.12B45,2013-04-13 04:43:00,
2013-04-12 21:48:00,52.9,46.6,29.79,WNW,284,0.0,0.0,79,0.00,,,0.00,0,WeatherCatV1.12B45,2013-04-13 04:48:00,
2013-04-12 21:53:00,52.8,46.5,29.79,West,280,0.0,0.0,79,0.00,,,0.00,0,WeatherCatV1.12B45,2013-04-13 04:53:00,
2013-04-12 21:58:00,52.6,46.3,29.79,West,270,0.0,0.0,79,0.00,,,0.00,0,WeatherCatV1.12B45,2013-04-13 04:58:00,
2013-04-12 22:03:00,52.5,46.5,29.80,West,275,0.0,0.0,80,0.00,,,0.00,0,WeatherCatV1.12B45,2013-04-13 05:03:00,
2013-04-12 22:08:00,52.2,46.2,29.80,WNW,289,0.0,0.0,80,0.00,,,0.00,0,WeatherCatV1.12B45,2013-04-13 05:08:00,
2013-04-12 22:13:00,52.0,46.0,29.80,WNW,298,0.0,0.0,80,0.00,,,0.00,0,WeatherCatV1.12B45,2013-04-13 05:13:00,
2013-04-12 22:18:00,51.9,46.3,29.80,WNW,282,0.0,0.0,81,0.00,,,0.00,0,WeatherCatV1.12B45,2013-04-13 05:18:00,
2013-04-12 22:23:00,51.7,46.1,29.80,WNW,284,0.0,0.0,81,0.00,,,0.00,0,WeatherCatV1.12B45,2013-04-13 05:23:00,
2013-04-12 22:28:00,51.6,46.0,29.80,WNW,298,0.0,0.0,81,0.00,,,0.00,0,WeatherCatV1.12B45,2013-04-13 05:28:00,
2013-04-12 22:33:00,51.4,46.1,29.80,WNW,301,0.0,0.0,82,0.00,,,0.00,0,WeatherCatV1.12B45,2013-04-13 05:33:00,
2013-04-12 22:38:00,51.3,46.0,29.80,WNW,301,0.0,0.0,82,0.00,,,0.00,0,WeatherCatV1.12B45,2013-04-13 05:38:00,
2013-04-12 22:43:00,51.1,45.8,29.80,NW,304,0.0,0.0,82,0.00,,,0.00,0,WeatherCatV1.12B45,2013-04-13 05:43:00,
2013-04-12 22:48:00,50.8,45.5,29.81,WNW,287,0.0,0.0,82,0.00,,,0.00,0,WeatherCatV1.12B45,2013-04-13 05:48:00,
2013-04-12 22:53:00,50.7,45.7,29.81,WNW,289,0.0,0.0,83,0.00,,,0.00,0,WeatherCatV1.12B45,2013-04-13 05:53:00,
2013-04-12 22:58:00,50.7,45.7,29.81,West,281,0.0,0.0,83,0.00,,,0.00,0,WeatherCatV1.12B45,2013-04-13 05:58:00,
2013-04-12 23:03:00,50.5,45.8,29.80,WNW,285,0.0,0.0,84,0.00,,,0.00,0,WeatherCatV1.12B45,2013-04-13 06:03:00,
2013-04-12 23:08:00,50.4,45.7,29.80,WNW,287,0.0,0.0,84,0.00,,,0.00,0,WeatherCatV1.12B45,2013-04-13 06:08:00,
2013-04-12 23:13:00,50.2,45.6,29.80,WNW,285,0.0,0.0,84,0.00,,,0.00,0,WeatherCatV1.12B45,2013-04-13 06:13:00,
2013-04-12 23:18:00,50.1,45.5,29.80,West,274,0.0,0.0,84,0.00,,,0.00,0,WeatherCatV1.12B45,2013-04-13 06:18:00,
2013-04-12 23:23:00,49.9,45.3,29.80,West,275,0.0,0.0,84,0.00,,,0.00,0,WeatherCatV1.12B45,2013-04-13 06:23:00,
2013-04-12 23:28:00,49.8,45.2,29.80,WNW,282,0.0,0.0,84,0.00,,,0.00,0,WeatherCatV1.12B45,2013-04-13 06:28:00,
2013-04-12 23:33:00,49.8,45.2,29.80,West,277,0.0,0.0,84,0.00,,,0.00,0,WeatherCatV1.12B45,2013-04-13 06:33:00,
2013-04-12 23:38:00,49.6,45.0,29.80,West,278,0.0,0.0,84,0.00,,,0.00,0,WeatherCatV1.12B45,2013-04-13 06:38:00,
2013-04-12 23:43:00,49.5,44.9,29.80,West,267,0.0,0.0,84,0.00,,,0.00,0,WeatherCatV1.12B45,2013-04-13 06:43:00,
2013-04-12 23:53:00,49.4,45.1,29.81,West,261,0.0,0.0,85,0.00,,,0.00,0,WeatherCatV1.12B45,2013-04-13 06:53:00,
2013-04-12 23:58:00,49.2,44.9,29.81,WSW,258,0.0,0.0,85,0.00,,,0.00,0,WeatherCatV1.12B45,2013-04-13 06:58:00,